| Date | Time | Temp. (oF) | Dew Point (oF) | Rel. Hum. (%) | Press. (in.) | Wind Dir. | Wind Speed (mph) | Hourly Rainfall (in.) |
|
|---|---|---|---|---|---|---|---|---|---|
| 1 | 01/15 | 00:00 | 41 | 31 | 69 | 29.87 | SE | 3 | 0.00 |
| 2 | 01/14 | 23:00 | 43 | 32 | 65 | 29.89 | S | 4 | 0.00 |
| 3 | 01/14 | 22:00 | 44 | 31 | 62 | 29.89 | SSE | 6 | 0.00 |
| 4 | 01/14 | 21:00 | 40 | 29 | 67 | 29.91 | E | 4 | 0.00 |
| 5 | 01/14 | 20:00 | 39 | 30 | 70 | 29.92 | ENE | 4 | 0.00 |
| 6 | 01/14 | 19:00 | 40 | 30 | 68 | 29.93 | NE | 4 | 0.00 |
| 7 | 01/14 | 18:00 | 41 | 29 | 64 | 29.94 | SSE | 5 | 0.00 |
| 8 | 01/14 | 17:00 | 44 | 24 | 47 | 29.95 | SE | 3 | 0.00 |
| 9 | 01/14 | 16:00 | 45 | 24 | 45 | 29.96 | SE | 8 | 0.00 |
| 10 | 01/14 | 15:00 | 46 | 26 | 47 | 29.98 | SSE | 5 | 0.00 |
| 11 | 01/14 | 14:00 | 45 | 24 | 45 | 30.00 | SE | 5 | 0.00 |
| 12 | 01/14 | 13:00 | 46 | 25 | 44 | 30.04 | SE | 6 | 0.00 |
| 13 | 01/14 | 12:00 | 44 | 25 | 49 | 30.05 | ESE | 6 | 0.00 |
| 14 | 01/14 | 11:00 | 42 | 27 | 56 | 30.10 | NE | 2 | 0.00 |
| 15 | 01/14 | 10:00 | 35 | 29 | 79 | 30.13 | ENE | 3 | 0.00 |
| 16 | 01/14 | 09:00 | 28 | 26 | 93 | 30.11 | S | 0 | 0.00 |
| 17 | 01/14 | 08:00 | 25 | 23 | 93 | 30.11 | NNE | 2 | 0.00 |
| 18 | 01/14 | 07:00 | 25 | 22 | 90 | 30.12 | S | 0 | 0.00 |
| 19 | 01/14 | 06:00 | 27 | 23 | 85 | 30.10 | WNW | 1 | 0.00 |
| 20 | 01/14 | 05:00 | 28 | 23 | 84 | 30.08 | NNW | 0 | 0.00 |
| 21 | 01/14 | 04:00 | 28 | 23 | 82 | 30.08 | NNW | 0 | 0.00 |
| 22 | 01/14 | 03:00 | 28 | 22 | 81 | 30.09 | SW | 1 | 0.00 |
| 23 | 01/14 | 02:00 | 27 | 21 | 78 | 30.06 | SW | 1 | 0.00 |
| 24 | 01/14 | 01:00 | 28 | 21 | 75 | 30.03 | SW | 2 | 0.00 |